Time;durP1;ratioP1;P1;durP2;ratioP2;P2;SDS_P1;SDS_P2;PMS_P1;PMS_P2;Temp;Humidity;BMP_temperature;BMP_pressure;BME280_temperature;BME280_humidity;BME280_pressure;Samples;Min_cycle;Max_cycle;Signal;HPM_P1;HPM_P2
2023/05/27 00:00:09;;;;;;;7.65;2.63;;;7.30;99.90;;;;;;5075435;28;20043;-93
2023/05/27 00:02:39;;;;;;;8.15;2.50;;;7.80;99.90;;;;;;5053410;28;20036;-93
2023/05/27 00:05:05;;;;;;;6.57;3.13;;;7.80;99.90;;;;;;5088802;28;20451;-93
2023/05/27 00:07:31;;;;;;;6.05;2.40;;;7.70;99.90;;;;;;5087395;28;20043;-94
2023/05/27 00:09:57;;;;;;;6.50;2.50;;;7.60;99.90;;;;;;5079512;28;20036;-93
2023/05/27 00:12:23;;;;;;;6.35;2.25;;;7.60;99.90;;;;;;5079730;28;20032;-93
2023/05/27 00:14:49;;;;;;;8.27;2.30;;;7.50;99.90;;;;;;5062763;28;20050;-93
2023/05/27 00:17:14;;;;;;;5.97;2.65;;;7.50;99.90;;;;;;5078940;28;20044;-93
2023/05/27 00:19:42;;;;;;;8.07;2.35;;;7.50;99.90;;;;;;5063452;28;20040;-94
2023/05/27 00:22:08;;;;;;;7.07;2.22;;;7.40;99.90;;;;;;5080538;28;20036;-93
2023/05/27 00:24:39;;;;;;;6.38;2.53;;;6.80;99.90;;;;;;5079989;28;20548;-93
2023/05/27 00:27:08;;;;;;;5.75;1.90;;;7.40;99.90;;;;;;5081462;28;20050;-93
2023/05/27 00:29:35;;;;;;;6.72;2.40;;;7.40;99.90;;;;;;5097463;28;20035;-93
2023/05/27 00:32:05;;;;;;;5.60;2.47;;;7.30;99.90;;;;;;5080088;28;20040;-92
2023/05/27 00:34:34;;;;;;;7.72;2.50;;;7.30;99.90;;;;;;5111638;28;20031;-94
2023/05/27 00:37:00;;;;;;;11.00;3.40;;;7.30;99.90;;;;;;5065857;28;20035;-94
2023/05/27 00:39:25;;;;;;;7.03;2.38;;;7.50;99.90;;;;;;5087581;28;20088;-94
2023/05/27 00:41:51;;;;;;;7.30;2.45;;;7.30;99.90;;;;;;5115141;28;20035;-93
2023/05/27 00:44:17;;;;;;;9.52;2.53;;;6.80;99.90;;;;;;5081593;28;20031;-93
2023/05/27 00:46:46;;;;;;;9.13;3.00;;;7.30;99.90;;;;;;5065744;28;20040;-93
2023/05/27 00:49:12;;;;;;;8.35;2.50;;;7.30;99.90;;;;;;5115574;28;20104;-93
2023/05/27 00:51:38;;;;;;;10.23;2.70;;;7.20;99.90;;;;;;5104759;28;20036;-94
2023/05/27 00:54:05;;;;;;;7.40;3.00;;;6.40;99.90;;;;;;5083055;28;20393;-94
2023/05/27 00:56:32;;;;;;;7.57;2.80;;;7.20;99.90;;;;;;5081460;28;20049;-93
2023/05/27 00:58:58;;;;;;;6.85;3.10;;;7.20;99.90;;;;;;5073950;28;20070;-94
2023/05/27 01:01:25;;;;;;;9.48;3.03;;;7.20;99.90;;;;;;5082305;28;20040;-93
2023/05/27 01:03:52;;;;;;;6.28;2.55;;;7.30;99.90;;;;;;5062968;28;20062;-93
2023/05/27 01:06:24;;;;;;;8.55;2.55;;;7.20;99.90;;;;;;5091408;28;20048;-94
2023/05/27 01:08:59;;;;;;;7.05;2.85;;;7.30;99.90;;;;;;5082787;28;20109;-94
2023/05/27 01:11:32;;;;;;;7.13;2.45;;;7.30;99.90;;;;;;5080406;28;20063;-94
2023/05/27 01:14:09;;;;;;;9.38;2.53;;;7.20;99.90;;;;;;5076111;28;20043;-93
2023/05/27 01:16:39;;;;;;;11.32;3.05;;;7.10;99.90;;;;;;5082616;28;20046;-93
2023/05/27 01:19:11;;;;;;;11.77;3.20;;;7.10;99.90;;;;;;5080440;28;20044;-93
2023/05/27 01:21:39;;;;;;;14.32;3.00;;;7.10;99.90;;;;;;5114449;28;20051;-94
2023/05/27 01:24:05;;;;;;;11.60;3.78;;;7.00;99.90;;;;;;5083994;28;20035;-93
2023/05/27 01:26:31;;;;;;;8.90;3.15;;;7.10;99.90;;;;;;5131475;28;20040;-93
2023/05/27 01:28:58;;;;;;;9.52;3.05;;;7.10;99.90;;;;;;5098255;28;20095;-94
2023/05/27 01:31:35;;;;;;;10.57;3.40;;;7.10;99.90;;;;;;5115639;28;20032;-93
2023/05/27 01:34:07;;;;;;;7.78;2.55;;;7.10;99.90;;;;;;5097725;28;20024;-94
2023/05/27 01:36:55;;;;;;;10.10;2.78;;;7.20;99.90;;;;;;5114062;28;20043;-94
2023/05/27 01:39:23;;;;;;;9.02;2.95;;;7.20;99.90;;;;;;5081618;28;20039;-93
2023/05/27 01:41:50;;;;;;;8.75;2.58;;;6.70;99.90;;;;;;5062606;28;20036;-95
2023/05/27 01:44:17;;;;;;;9.10;3.13;;;7.20;99.90;;;;;;5077880;28;20031;-94
2023/05/27 01:46:44;;;;;;;6.85;2.50;;;7.20;99.90;;;;;;5062940;28;20105;-96
2023/05/27 01:49:10;;;;;;;8.35;2.22;;;7.30;99.90;;;;;;5070644;28;20040;-96
2023/05/27 01:51:36;;;;;;;9.65;2.85;;;7.30;99.90;;;;;;5079868;28;20035;-96
2023/05/27 01:54:03;;;;;;;6.07;2.50;;;7.30;99.90;;;;;;5081701;28;20038;-97
2023/05/27 01:56:29;;;;;;;5.33;2.43;;;7.30;99.90;;;;;;5081562;28;20039;-95
2023/05/27 01:58:56;;;;;;;9.15;2.92;;;7.40;99.90;;;;;;5111083;28;20039;-96
2023/05/27 02:01:22;;;;;;;;;;;7.40;99.90;;;;;;5094401;28;20062;-96
2023/05/27 02:03:48;;;;;;;7.32;2.50;;;7.40;99.90;;;;;;5081049;28;19923;-95
2023/05/27 02:06:14;;;;;;;11.50;2.97;;;7.40;99.90;;;;;;5095433;28;20039;-95
2023/05/27 02:08:40;;;;;;;8.82;2.63;;;7.40;99.90;;;;;;5082579;28;20031;-96
2023/05/27 02:11:06;;;;;;;8.93;2.55;;;7.50;99.90;;;;;;5083860;28;20080;-96
2023/05/27 02:13:32;;;;;;;11.75;2.97;;;7.50;99.90;;;;;;5082210;28;20470;-96
2023/05/27 02:15:58;;;;;;;11.63;2.92;;;7.60;99.90;;;;;;5057546;28;20043;-96
2023/05/27 02:18:25;;;;;;;8.43;2.25;;;8.10;99.90;;;;;;5112163;28;20098;-96
2023/05/27 02:20:54;;;;;;;6.90;1.98;;;7.60;99.90;;;;;;5075663;28;20039;-96
2023/05/27 02:23:20;;;;;;;9.40;2.50;;;7.60;99.90;;;;;;5051676;28;20474;-96
2023/05/27 02:25:46;;;;;;;7.85;2.30;;;7.60;99.90;;;;;;5099913;28;20131;-96
2023/05/27 02:28:12;;;;;;;6.43;2.33;;;7.60;99.90;;;;;;5099873;28;20053;-96
2023/05/27 02:30:38;;;;;;;8.93;2.73;;;7.50;99.90;;;;;;5098080;28;20087;-96
2023/05/27 02:33:04;;;;;;;6.70;2.40;;;7.30;99.90;;;;;;5088643;28;20473;-96
2023/05/27 02:35:30;;;;;;;9.15;2.67;;;8.10;99.90;;;;;;5082222;28;20067;-96
2023/05/27 02:37:56;;;;;;;6.88;2.42;;;6.90;99.90;;;;;;5071323;28;20525;-96
2023/05/27 02:40:26;;;;;;;10.02;2.70;;;7.20;99.90;;;;;;5080803;28;20027;-96
2023/05/27 02:42:52;;;;;;;9.88;2.88;;;7.30;99.90;;;;;;5061754;28;20139;-96
2023/05/27 02:45:19;;;;;;;7.30;2.42;;;7.30;99.90;;;;;;5076848;28;20716;-96
2023/05/27 02:47:45;;;;;;;10.68;2.60;;;7.30;99.90;;;;;;5114334;28;20089;-96
2023/05/27 02:50:11;;;;;;;8.15;2.20;;;7.30;99.90;;;;;;5114727;28;20097;-96
2023/05/27 02:52:37;;;;;;;8.55;2.80;;;7.30;99.90;;;;;;5091546;28;20040;-96
2023/05/27 02:55:03;;;;;;;15.85;2.95;;;7.40;99.90;;;;;;5061705;28;20068;-96
2023/05/27 02:57:29;;;;;;;7.35;2.25;;;7.40;99.90;;;;;;5108718;28;20122;-96
2023/05/27 02:59:55;;;;;;;10.38;2.60;;;7.50;99.90;;;;;;5068119;28;20042;-95
2023/05/27 03:02:21;;;;;;;9.57;2.78;;;7.50;99.90;;;;;;5115267;28;20032;-96
2023/05/27 03:04:47;;;;;;;12.90;3.03;;;7.50;99.90;;;;;;5062787;28;20136;-96
2023/05/27 03:07:13;;;;;;;7.20;2.72;;;7.60;99.90;;;;;;5116810;28;20035;-96
2023/05/27 03:09:40;;;;;;;8.45;2.50;;;;;;;;;;5085583;28;20040;-96
2023/05/27 03:12:06;;;;;;;11.07;3.15;;;7.80;99.90;;;;;;5081091;28;20114;-96
2023/05/27 03:14:34;;;;;;;8.20;3.22;;;7.90;99.90;;;;;;5081435;28;20020;-96
2023/05/27 03:17:00;;;;;;;7.25;2.50;;;7.90;99.90;;;;;;5097687;28;20032;-95
2023/05/27 03:19:26;;;;;;;9.10;2.60;;;7.90;99.90;;;;;;5082858;28;20103;-95
2023/05/27 03:21:52;;;;;;;7.03;2.38;;;7.90;99.90;;;;;;5081283;28;20047;-96
2023/05/27 03:24:18;;;;;;;7.18;2.67;;;8.00;99.90;;;;;;5096044;28;20050;-96
2023/05/27 03:26:44;;;;;;;11.35;3.33;;;7.60;99.90;;;;;;5077826;28;20044;-96
2023/05/27 03:29:10;;;;;;;11.90;2.90;;;8.90;99.90;;;;;;5080477;28;20040;-95
2023/05/27 03:31:44;;;;;;;8.65;2.80;;;8.10;99.90;;;;;;5112327;28;20035;-96
2023/05/27 03:34:10;;;;;;;10.05;3.15;;;8.10;99.90;;;;;;5079577;28;20046;-96
2023/05/27 03:36:37;;;;;;;11.88;3.05;;;8.20;99.90;;;;;;5062500;28;20036;-95
2023/05/27 03:39:04;;;;;;;8.07;2.70;;;8.20;99.90;;;;;;5079205;28;20047;-96
2023/05/27 03:41:31;;;;;;;7.22;2.28;;;8.20;99.90;;;;;;5062777;28;20039;-96
2023/05/27 03:43:57;;;;;;;8.23;2.50;;;8.30;99.90;;;;;;5061980;28;20696;-96
2023/05/27 03:46:22;;;;;;;8.82;2.55;;;8.30;99.90;;;;;;5057830;28;20035;-95
2023/05/27 03:48:48;;;;;;;8.52;2.78;;;8.10;99.90;;;;;;5065881;28;20047;-96
2023/05/27 03:51:14;;;;;;;8.30;2.75;;;8.30;99.90;;;;;;5093856;28;20039;-95
2023/05/27 03:53:40;;;;;;;8.23;2.80;;;8.30;99.90;;;;;;5102998;28;20127;-95
2023/05/27 03:56:06;;;;;;;8.75;2.67;;;8.40;99.90;;;;;;5077516;28;20100;-96
2023/05/27 03:58:32;;;;;;;8.85;2.47;;;8.30;99.90;;;;;;5059909;28;20051;-96
2023/05/27 04:00:58;;;;;;;11.77;2.78;;;9.00;99.90;;;;;;5076164;28;20048;-95
2023/05/27 04:03:25;;;;;;;7.25;2.50;;;8.40;99.90;;;;;;5074245;28;20169;-95
2023/05/27 04:05:51;;;;;;;;;;;8.40;99.90;;;;;;5088671;28;20064;-96
2023/05/27 04:08:17;;;;;;;9.55;2.47;;;8.40;99.90;;;;;;5076698;28;20010;-96
2023/05/27 04:10:43;;;;;;;11.32;3.10;;;8.50;99.90;;;;;;5063667;28;20032;-96
2023/05/27 04:13:08;;;;;;;10.73;3.42;;;8.50;99.90;;;;;;5076673;28;20040;-95
2023/05/27 04:15:35;;;;;;;7.95;3.03;;;;;;;;;;5079528;28;20135;-95
2023/05/27 04:18:01;;;;;;;10.80;3.33;;;8.70;99.90;;;;;;5072403;28;20032;-95
2023/05/27 04:20:35;;;;;;;10.38;3.20;;;8.70;99.90;;;;;;5080099;28;20168;-95
2023/05/27 04:23:01;;;;;;;7.90;2.92;;;8.70;99.90;;;;;;5079759;28;20065;-96
2023/05/27 04:25:27;;;;;;;8.38;3.00;;;8.80;99.90;;;;;;5080605;28;20062;-95
2023/05/27 04:27:55;;;;;;;7.00;2.72;;;8.90;99.90;;;;;;5048942;28;20047;-95
2023/05/27 04:30:21;;;;;;;11.75;2.75;;;8.90;99.90;;;;;;5066989;28;20088;-95
2023/05/27 04:32:47;;;;;;;9.75;2.75;;;9.00;99.90;;;;;;5075882;28;20044;-95
2023/05/27 04:35:13;;;;;;;9.35;3.00;;;9.10;99.90;;;;;;5112987;28;20032;-96
2023/05/27 04:37:40;;;;;;;9.88;2.80;;;9.10;99.90;;;;;;5096544;28;20119;-96
2023/05/27 04:40:08;;;;;;;11.13;3.13;;;9.20;99.90;;;;;;5077643;28;20035;-95
2023/05/27 04:42:38;;;;;;;11.20;2.95;;;9.20;99.90;;;;;;5081802;28;20039;-96
2023/05/27 04:45:05;;;;;;;11.55;3.20;;;9.30;99.90;;;;;;5083054;28;20046;-95
2023/05/27 04:47:32;;;;;;;;;;;9.30;99.90;;;;;;5066302;28;20095;-95
2023/05/27 04:50:00;;;;;;;8.25;2.63;;;9.40;99.90;;;;;;5082006;28;19919;-96
2023/05/27 04:52:27;;;;;;;8.18;2.50;;;9.40;99.90;;;;;;5061092;28;20061;-96
2023/05/27 04:54:54;;;;;;;11.75;2.55;;;9.50;99.90;;;;;;5081147;28;20039;-96
2023/05/27 04:57:21;;;;;;;9.45;3.10;;;9.00;99.90;;;;;;5078920;28;20039;-96
2023/05/27 05:02:35;;;;;;;9.48;2.95;;;9.60;99.90;;;;;;5092677;28;20053;-96
2023/05/27 05:05:02;;;;;;;10.32;2.72;;;9.70;99.90;;;;;;5066381;28;20070;-95
2023/05/27 05:07:28;;;;;;;8.38;2.75;;;9.70;99.90;;;;;;5112338;28;20052;-95
2023/05/27 05:09:54;;;;;;;10.70;2.83;;;9.70;99.90;;;;;;5115586;28;20036;-96
2023/05/27 05:12:25;;;;;;;9.55;2.88;;;9.80;99.90;;;;;;5083445;28;20078;-96
2023/05/27 05:14:50;;;;;;;10.77;3.00;;;9.70;99.90;;;;;;5083596;28;20059;-96
2023/05/27 05:17:16;;;;;;;9.07;2.30;;;9.80;99.90;;;;;;5080623;28;20047;-96
2023/05/27 05:19:43;;;;;;;10.57;2.85;;;9.80;99.90;;;;;;5105130;28;20042;-95
2023/05/27 05:22:09;;;;;;;8.43;3.00;;;9.80;99.90;;;;;;5098600;28;20089;-96
2023/05/27 05:24:35;;;;;;;8.70;2.65;;;9.90;99.90;;;;;;5072599;28;20036;-95
2023/05/27 05:27:00;;;;;;;9.50;2.75;;;9.90;99.90;;;;;;5086609;28;20069;-96
2023/05/27 05:29:26;;;;;;;6.95;2.75;;;10.00;99.90;;;;;;5082981;28;20040;-96
2023/05/27 05:31:52;;;;;;;8.48;2.90;;;9.90;99.90;;;;;;5128423;28;20118;-96
2023/05/27 05:34:18;;;;;;;5.90;2.47;;;10.00;99.90;;;;;;5083354;28;20040;-95
2023/05/27 05:36:44;;;;;;;10.77;2.72;;;10.30;99.90;;;;;;5065859;28;20043;-95
2023/05/27 05:39:09;;;;;;;9.25;3.00;;;10.00;99.90;;;;;;5073290;28;20065;-95
2023/05/27 05:41:35;;;;;;;6.57;2.83;;;10.10;99.90;;;;;;5097545;28;20036;-96
2023/05/27 05:44:01;;;;;;;8.57;3.10;;;10.30;99.90;;;;;;5099007;28;20038;-95
2023/05/27 05:46:27;;;;;;;9.63;2.63;;;10.20;99.90;;;;;;5075368;28;20181;-95
2023/05/27 05:48:53;;;;;;;8.63;2.58;;;10.20;99.90;;;;;;5065023;28;20047;-96
2023/05/27 05:51:19;;;;;;;12.68;3.10;;;10.30;99.90;;;;;;5110606;28;20042;-95
2023/05/27 05:53:46;;;;;;;11.55;3.60;;;10.40;99.90;;;;;;5091980;28;20035;-96
2023/05/27 05:56:11;;;;;;;7.15;2.28;;;10.60;99.90;;;;;;5060956;28;20050;-96
2023/05/27 05:58:37;;;;;;;9.38;2.92;;;10.90;99.90;;;;;;5076257;28;20044;-95
2023/05/27 06:01:04;;;;;;;8.98;2.58;;;11.90;99.90;;;;;;5061687;28;20076;-96
2023/05/27 06:03:30;;;;;;;10.97;3.27;;;12.80;99.90;;;;;;5065499;28;20485;-96
2023/05/27 06:05:55;;;;;;;11.85;3.42;;;13.80;99.90;;;;;;5077062;28;20055;-96
2023/05/27 06:08:21;;;;;;;9.75;3.60;;;13.70;99.90;;;;;;5082417;28;20032;-96
2023/05/27 06:10:47;;;;;;;14.43;3.38;;;14.50;99.90;;;;;;5081525;28;20036;-96
2023/05/27 06:13:13;;;;;;;12.75;3.30;;;15.80;99.90;;;;;;5048203;28;20047;-96
2023/05/27 06:15:39;;;;;;;10.20;2.63;;;16.30;99.90;;;;;;5083558;28;20801;-96
2023/05/27 06:18:08;;;;;;;9.45;2.85;;;18.30;99.90;;;;;;5078620;28;20043;-96
2023/05/27 06:20:33;;;;;;;10.38;2.90;;;17.50;99.90;;;;;;5063246;28;20050;-96
2023/05/27 06:27:18;;;;;;;13.07;4.25;;;18.20;99.90;;;;;;5038162;28;20056;-96
2023/05/27 06:29:45;;;;;;;11.02;3.00;;;17.70;99.90;;;;;;5040625;28;20546;-96
2023/05/27 06:32:11;;;;;;;8.38;2.67;;;16.90;99.90;;;;;;5059259;28;20045;-95
2023/05/27 06:34:40;;;;;;;7.97;2.45;;;16.50;99.90;;;;;;5027104;28;20093;-96
2023/05/27 06:37:08;;;;;;;11.73;3.20;;;16.40;99.90;;;;;;5055566;28;20104;-95
2023/05/27 06:39:34;;;;;;;11.98;3.50;;;16.50;99.90;;;;;;5084512;23;20035;-36
2023/05/27 06:41:59;;;;;;;7.18;2.92;;;16.10;99.90;;;;;;5065162;28;20105;-35
2023/05/27 06:44:25;;;;;;;9.75;3.13;;;16.30;99.90;;;;;;5062613;28;20040;-36
2023/05/27 06:46:51;;;;;;;8.40;2.70;;;16.90;99.90;;;;;;5058760;28;20059;-36
2023/05/27 06:49:16;;;;;;;7.07;2.70;;;17.60;99.90;;;;;;5062625;28;20539;-36
2023/05/27 06:51:43;;;;;;;10.73;3.95;;;18.40;99.90;;;;;;5059067;28;20036;-36
2023/05/27 06:54:08;;;;;;;9.85;2.85;;;18.80;99.90;;;;;;5035720;28;20029;-36
2023/05/27 06:56:34;;;;;;;10.95;3.10;;;18.40;99.90;;;;;;5057116;28;20501;-36
2023/05/27 06:59:00;;;;;;;10.38;3.47;;;18.40;99.90;;;;;;5059676;28;20071;-36
2023/05/27 07:01:26;;;;;;;11.00;3.17;;;18.40;99.90;;;;;;5031256;28;20038;-36
2023/05/27 07:03:53;;;;;;;7.25;3.00;;;18.70;99.90;;;;;;5065271;28;20048;-36
2023/05/27 07:06:19;;;;;;;9.38;2.85;;;19.10;99.90;;;;;;5039962;28;20044;-35
2023/05/27 07:08:45;;;;;;;11.57;3.53;;;19.20;99.90;;;;;;5060482;28;20173;-36
2023/05/27 07:11:11;;;;;;;8.80;2.85;;;18.80;99.90;;;;;;5062483;28;20032;-35
2023/05/27 07:13:36;;;;;;;9.85;3.05;;;18.80;99.90;;;;;;5063090;28;20041;-35
2023/05/27 07:16:02;;;;;;;10.45;2.90;;;19.10;99.90;;;;;;5065033;28;20045;-35
2023/05/27 07:18:28;;;;;;;9.35;3.22;;;19.10;99.90;;;;;;5060801;28;20047;-36
2023/05/27 07:20:54;;;;;;;7.95;2.78;;;19.30;99.90;;;;;;5060142;28;20071;-35
2023/05/27 07:23:19;;;;;;;8.95;2.80;;;20.00;99.90;;;;;;5044161;28;20048;-36
2023/05/27 07:25:45;;;;;;;8.23;3.35;;;19.80;99.90;;;;;;5061647;28;20460;-35
2023/05/27 07:28:11;;;;;;;10.73;2.92;;;19.50;99.90;;;;;;5058530;28;20471;-35
2023/05/27 07:30:37;;;;;;;8.23;2.83;;;19.20;99.90;;;;;;5054756;28;20577;-35
2023/05/27 07:33:03;;;;;;;10.10;3.28;;;18.70;99.90;;;;;;5061959;28;20028;-35
2023/05/27 07:35:28;;;;;;;10.88;2.92;;;18.70;99.90;;;;;;5052127;28;20045;-35
2023/05/27 07:37:54;;;;;;;12.38;3.13;;;18.60;99.90;;;;;;5061775;28;20114;-35
2023/05/27 07:40:20;;;;;;;9.50;3.72;;;18.70;99.90;;;;;;5043708;28;20057;-35
2023/05/27 07:42:46;;;;;;;11.70;2.97;;;18.40;99.90;;;;;;5032146;28;20501;-35
2023/05/27 07:45:12;;;;;;;8.00;3.15;;;18.40;99.90;;;;;;5035117;28;20072;-35
2023/05/27 07:47:37;;;;;;;9.77;3.20;;;19.20;99.90;;;;;;5040282;28;20311;-36
2023/05/27 07:50:03;;;;;;;8.80;3.22;;;19.30;99.90;;;;;;5031199;28;20163;-37
2023/05/27 07:52:29;;;;;;;10.02;3.78;;;19.40;99.90;;;;;;4912544;28;20047;-35
2023/05/27 07:54:58;;;;;;;8.65;2.90;;;18.60;99.90;;;;;;4953045;28;20100;-35
2023/05/27 07:57:24;;;;;;;9.93;3.05;;;18.70;99.90;;;;;;4965375;28;20051;-36
2023/05/27 07:59:50;;;;;;;9.77;3.10;;;19.20;99.90;;;;;;4965049;28;20571;-35
2023/05/27 08:02:16;;;;;;;9.80;3.30;;;19.20;99.90;;;;;;4965848;28;20046;-35
2023/05/27 08:04:43;;;;;;;10.55;3.78;;;18.90;99.90;;;;;;4965637;28;20039;-35
2023/05/27 08:07:09;;;;;;;7.97;3.20;;;18.30;99.90;;;;;;4968936;28;20047;-35
2023/05/27 08:09:35;;;;;;;8.95;3.20;;;18.00;99.90;;;;;;4966565;28;20042;-35
2023/05/27 08:12:01;;;;;;;10.23;3.47;;;18.50;99.90;;;;;;4963747;28;20263;-35
2023/05/27 08:14:27;;;;;;;9.50;3.35;;;18.50;99.90;;;;;;4964817;28;20039;-36
2023/05/27 08:16:54;;;;;;;8.65;3.25;;;18.20;99.90;;;;;;4959625;28;20058;-35
2023/05/27 08:19:20;;;;;;;9.63;2.97;;;18.20;99.90;;;;;;4966307;28;20121;-35
2023/05/27 08:28:57;;;;;;;9.50;3.13;;;17.30;99.90;;;;;;5067498;23;20209;-79
2023/05/27 08:31:23;;;;;;;10.13;3.42;;;17.20;99.90;;;;;;5004318;28;20756;-79
2023/05/27 08:33:49;;;;;;;10.30;3.45;;;17.30;99.90;;;;;;5012459;28;20488;-83
2023/05/27 08:36:21;;;;;;;8.95;3.30;;;17.10;99.90;;;;;;5001498;28;20559;-81
2023/05/27 08:38:47;;;;;;;8.85;3.33;;;17.00;99.90;;;;;;5021047;28;20069;-82
2023/05/27 08:41:13;;;;;;;8.57;3.20;;;17.10;99.90;;;;;;4956238;28;20066;-80
2023/05/27 08:43:40;;;;;;;8.93;3.35;;;17.40;99.90;;;;;;5003346;28;20492;-80
2023/05/27 08:46:07;;;;;;;12.80;3.15;;;17.40;99.90;;;;;;5005323;28;20042;-81
2023/05/27 08:48:33;;;;;;;9.40;3.85;;;17.70;99.90;;;;;;5025900;28;20050;-80
2023/05/27 08:51:00;;;;;;;9.38;3.70;;;18.20;99.90;;;;;;4991378;28;20037;-80
2023/05/27 08:53:26;;;;;;;12.63;3.50;;;18.30;99.90;;;;;;4976372;28;20302;-81
2023/05/27 08:55:57;;;;;;;7.30;2.80;;;18.20;99.90;;;;;;5007564;28;20547;-81
2023/05/27 08:58:24;;;;;;;10.93;2.95;;;18.50;99.90;;;;;;5024682;28;20567;-81
2023/05/27 09:00:50;;;;;;;8.27;3.22;;;18.70;99.90;;;;;;5010814;28;20046;-81
2023/05/27 09:03:16;;;;;;;11.15;3.08;;;19.10;99.90;;;;;;4991681;28;20046;-80
2023/05/27 09:05:42;;;;;;;13.27;3.47;;;19.30;99.90;;;;;;5024579;28;20165;-80
2023/05/27 09:08:09;;;;;;;9.95;3.20;;;19.50;99.90;;;;;;4991527;28;20117;-81
2023/05/27 09:10:39;;;;;;;10.07;3.30;;;19.80;99.90;;;;;;5008109;28;21840;-82
2023/05/27 09:13:05;;;;;;;9.23;3.20;;;20.10;99.90;;;;;;5012482;28;20050;-82
2023/05/27 09:15:32;;;;;;;7.90;2.83;;;20.20;99.90;;;;;;4990748;28;20060;-80
2023/05/27 09:17:58;;;;;;;10.80;3.05;;;19.70;97.70;;;;;;4995781;28;20046;-81
2023/05/27 09:20:29;;;;;;;11.50;3.17;;;19.40;99.90;;;;;;5011393;28;20029;-80
2023/05/27 09:23:02;;;;;;;10.00;3.10;;;19.30;99.90;;;;;;5021508;28;20045;-80
2023/05/27 09:25:29;;;;;;;9.07;2.67;;;19.20;99.90;;;;;;5009882;28;20488;-83
2023/05/27 09:27:55;;;;;;;8.30;2.97;;;19.20;99.90;;;;;;5006087;28;20433;-81
2023/05/27 09:30:22;;;;;;;8.85;3.08;;;18.90;99.90;;;;;;5006212;28;20112;-83
2023/05/27 09:32:48;;;;;;;7.97;2.80;;;18.90;99.90;;;;;;4993905;28;20034;-83
2023/05/27 09:35:17;;;;;;;10.57;2.65;;;19.10;99.90;;;;;;5020259;28;20044;-82
2023/05/27 09:37:45;;;;;;;7.82;2.95;;;19.40;99.90;;;;;;4978184;28;20234;-82
2023/05/27 09:40:14;;;;;;;9.57;3.13;;;19.40;99.90;;;;;;5016113;28;20454;-82
2023/05/27 09:42:45;;;;;;;7.45;2.85;;;19.30;99.90;;;;;;4991266;28;20113;-83
2023/05/27 09:45:14;;;;;;;7.45;2.83;;;18.90;99.90;;;;;;4996459;28;20045;-80
2023/05/27 09:47:42;;;;;;;7.63;2.90;;;18.80;99.90;;;;;;4995158;28;20052;-81
2023/05/27 09:50:14;;;;;;;7.72;2.95;;;19.00;99.90;;;;;;5013298;28;20045;-79
2023/05/27 09:52:41;;;;;;;12.65;3.60;;;19.20;99.90;;;;;;5029577;28;20046;-80
2023/05/27 09:55:09;;;;;;;7.78;3.05;;;19.50;99.90;;;;;;5016998;28;20127;-81
2023/05/27 09:57:35;;;;;;;8.82;3.20;;;19.50;99.90;;;;;;5010030;28;20081;-82
2023/05/27 10:00:17;;;;;;;10.70;3.20;;;19.50;99.90;;;;;;4995017;28;20049;-81
2023/05/27 10:02:46;;;;;;;8.20;3.17;;;19.60;99.90;;;;;;5012135;28;20057;-81
2023/05/27 10:05:14;;;;;;;10.68;3.28;;;19.80;99.90;;;;;;4978824;28;20101;-80
2023/05/27 10:07:42;;;;;;;11.25;3.25;;;19.60;97.40;;;;;;4994351;28;20073;-79
2023/05/27 10:10:11;;;;;;;8.05;3.30;;;19.30;97.60;;;;;;4979209;28;20057;-82
2023/05/27 10:12:37;;;;;;;6.97;2.88;;;19.50;99.90;;;;;;5032530;28;20167;-81
2023/05/27 10:15:04;;;;;;;10.48;3.47;;;19.70;99.90;;;;;;5009837;28;20272;-81
2023/05/27 10:17:47;;;;;;;7.55;3.30;;;19.80;99.40;;;;;;5032937;28;20049;-83
2023/05/27 10:20:33;;;;;;;8.70;3.03;;;19.90;97.90;;;;;;5013863;28;20045;-83
2023/05/27 10:23:15;;;;;;;9.88;3.15;;;19.90;98.20;;;;;;5012890;28;20519;-81
2023/05/27 10:25:57;;;;;;;8.25;3.60;;;20.10;97.10;;;;;;5027698;28;20521;-80
2023/05/27 10:28:39;;;;;;;9.52;3.65;;;20.10;96.80;;;;;;5005637;28;20481;-79
2023/05/27 10:31:20;;;;;;;12.00;3.33;;;20.10;96.40;;;;;;5006068;28;20062;-79
2023/05/27 10:33:52;;;;;;;8.93;2.97;;;20.20;98.40;;;;;;5025856;28;20503;-82
2023/05/27 10:36:31;;;;;;;9.85;3.35;;;20.00;96.80;;;;;;5021347;28;20758;-79
2023/05/27 10:39:05;;;;;;;6.93;3.08;;;19.70;97.30;;;;;;4989960;28;20054;-80
2023/05/27 10:41:50;;;;;;;8.15;3.00;;;19.70;98.00;;;;;;5011458;28;20052;-81
2023/05/27 10:44:31;;;;;;;6.95;3.10;;;19.90;99.50;;;;;;5018162;28;20063;-82
2023/05/27 10:47:28;;;;;;;10.15;2.95;;;20.20;97.60;;;;;;4993474;28;20049;-80
2023/05/27 10:49:56;;;;;;;8.45;3.40;;;20.40;96.40;;;;;;4970748;28;20120;-82
2023/05/27 10:52:26;;;;;;;8.05;3.38;;;20.60;95.30;;;;;;5025563;28;20108;-83
2023/05/27 10:54:53;;;;;;;9.15;3.20;;;20.80;92.80;;;;;;4988765;28;20543;-82
2023/05/27 10:57:24;;;;;;;8.30;3.03;;;20.80;92.60;;;;;;4987477;28;20049;-85
2023/05/27 10:59:52;;;;;;;10.30;3.45;;;21.00;91.50;;;;;;4992387;28;20042;-83
2023/05/27 11:02:19;;;;;;;7.15;2.60;;;21.20;90.80;;;;;;4988514;28;20377;-82
2023/05/27 11:04:45;;;;;;;;;;;21.30;90.00;;;;;;5007574;28;20046;-81
2023/05/27 11:07:11;;;;;;;9.93;3.20;;;21.30;90.30;;;;;;5017206;28;19928;-82
2023/05/27 11:09:46;;;;;;;9.73;2.95;;;21.40;89.90;;;;;;4988798;28;20547;-82
2023/05/27 11:12:16;;;;;;;9.07;3.47;;;21.30;87.60;;;;;;5020582;28;20120;-81
2023/05/27 11:14:43;;;;;;;8.13;2.75;;;21.20;86.70;;;;;;4972187;28;20041;-87
2023/05/27 11:17:12;;;;;;;7.88;3.45;;;21.00;88.30;;;;;;5007226;28;20136;-80
2023/05/27 11:19:42;;;;;;;6.90;2.80;;;20.90;87.50;;;;;;5026163;28;20054;-80
2023/05/27 11:22:09;;;;;;;10.57;3.50;;;20.80;88.10;;;;;;5003486;28;20100;-82
2023/05/27 11:24:36;;;;;;;8.23;3.08;;;20.80;89.00;;;;;;4987660;28;20588;-81
2023/05/27 11:27:12;;;;;;;7.95;3.03;;;20.80;88.50;;;;;;4987823;28;20042;-83
2023/05/27 11:29:40;;;;;;;7.07;3.17;;;20.60;86.20;;;;;;5002865;28;20515;-81
2023/05/27 11:32:06;;;;;;;10.68;3.40;;;20.50;86.40;;;;;;5004112;28;20089;-77
2023/05/27 11:34:42;;;;;;;11.70;3.47;;;20.60;86.00;;;;;;5024893;28;20034;-82
2023/05/27 11:37:08;;;;;;;9.85;3.83;;;20.60;85.80;;;;;;5009862;28;20144;-83
2023/05/27 11:39:34;;;;;;;7.90;2.90;;;20.60;86.40;;;;;;5009591;28;20497;-80
2023/05/27 11:42:04;;;;;;;9.18;3.45;;;20.80;87.50;;;;;;4991525;28;20473;-80
2023/05/27 11:44:30;;;;;;;11.65;3.95;;;20.90;87.50;;;;;;4992224;28;20073;-77
2023/05/27 11:47:00;;;;;;;9.40;3.47;;;20.90;87.00;;;;;;5026406;28;20084;-81
2023/05/27 11:49:27;;;;;;;8.32;3.53;;;20.70;84.50;;;;;;5012408;28;20046;-82
2023/05/27 11:51:55;;;;;;;6.30;2.67;;;20.50;85.20;;;;;;4991900;28;20042;-81
2023/05/27 11:54:27;;;;;;;9.88;3.33;;;20.40;86.90;;;;;;5027448;28;20500;-78
2023/05/27 11:56:54;;;;;;;9.02;3.33;;;20.40;86.70;;;;;;5028680;28;20432;-78
2023/05/27 11:59:22;;;;;;;10.13;2.97;;;20.30;86.10;;;;;;5008471;28;20516;-82
2023/05/27 12:01:48;;;;;;;8.10;2.92;;;20.10;86.20;;;;;;4970530;28;20046;-81
2023/05/27 12:04:14;;;;;;;7.53;3.00;;;20.20;88.00;;;;;;4991490;28;20061;-80
2023/05/27 12:06:44;;;;;;;6.97;2.78;;;20.20;87.70;;;;;;4991573;28;20594;-80
2023/05/27 12:09:10;;;;;;;9.13;3.05;;;20.20;87.20;;;;;;5006964;28;20466;-80
2023/05/27 12:11:37;;;;;;;9.77;2.78;;;20.30;86.80;;;;;;4991855;28;20046;-85
2023/05/27 12:14:03;;;;;;;8.63;2.88;;;20.30;86.10;;;;;;4990474;28;20041;-79
2023/05/27 12:16:29;;;;;;;6.87;2.93;;;20.20;85.70;;;;;;5018093;28;20050;-82
2023/05/27 12:18:55;;;;;;;8.88;3.58;;;20.20;85.30;;;;;;5007083;28;20046;-81
2023/05/27 12:21:21;;;;;;;7.15;3.13;;;20.20;85.00;;;;;;5026704;28;20042;-83
2023/05/27 12:23:47;;;;;;;10.93;3.47;;;20.20;85.20;;;;;;5012899;28;20124;-83
2023/05/27 12:26:14;;;;;;;12.43;3.28;;;20.20;85.60;;;;;;5049520;28;20048;-81
2023/05/27 12:28:40;;;;;;;8.32;3.50;;;20.10;86.60;;;;;;4997715;28;20081;-81
2023/05/27 12:31:07;;;;;;;8.48;3.55;;;20.10;87.70;;;;;;5015686;28;20095;-83
2023/05/27 12:33:33;;;;;;;13.10;3.58;;;20.00;88.30;;;;;;5002369;28;20045;-84
2023/05/27 12:36:00;;;;;;;9.15;3.50;;;20.00;88.00;;;;;;4998598;28;20260;-83
2023/05/27 12:38:26;;;;;;;7.60;3.22;;;20.00;88.00;;;;;;5031388;28;20041;-82
2023/05/27 12:40:52;;;;;;;9.70;3.40;;;20.00;87.90;;;;;;5029432;28;20045;-82
2023/05/27 12:43:19;;;;;;;9.27;3.53;;;19.90;88.00;;;;;;5027133;28;20477;-82
2023/05/27 12:45:45;;;;;;;;;;;19.80;89.70;;;;;;4999206;28;20487;-82
2023/05/27 12:48:15;;;;;;;10.55;3.70;;;19.80;91.00;;;;;;5013356;28;19960;-82
2023/05/27 12:50:41;;;;;;;10.60;3.50;;;19.70;91.70;;;;;;4985531;28;20087;-82
2023/05/27 12:53:08;;;;;;;10.30;3.95;;;19.70;93.00;;;;;;5013718;28;20045;-81
2023/05/27 12:55:35;;;;;;;9.70;3.92;;;19.60;94.70;;;;;;5020738;28;20045;-81
2023/05/27 12:58:04;;;;;;;8.30;3.53;;;19.60;98.50;;;;;;5028184;28;20044;-85
2023/05/27 13:00:31;;;;;;;11.63;3.55;;;19.60;99.90;;;;;;4998793;28;21108;-81
2023/05/27 13:02:57;;;;;;;7.20;3.35;;;19.50;99.90;;;;;;4998409;28;20095;-81
2023/05/27 13:05:23;;;;;;;10.35;4.25;;;19.50;99.90;;;;;;5026439;28;20447;-78